Argyle, Florida
Current Conditions -  °F | °C
As of 8:15 AM on Friday 19 Dec 2014 (Local Time) from K54J Reporting Station
Overcast Overcast  
Wind Chill: 51°   Ceiling: 5000
Heat Index: 51°   Visibility: 10mi
Dew Point: 37°   Wind: 7mph
Humidity: 60%   Direction: 350°N
Pressure: 30.18"   Gusts: NA
Location:  30.72°N, 86.04°W
Report Text: K54J 191415Z AUTO 35006KT 10SM SCT034 BKN050 OVC060 11/03 A3018 RMK AO2 T01050030
Loading
Personal Weather Stations






























Interactive Weather Map New forecast layout! Learn more

10-Day Weather Forecast

Advertisements
Track Severe Weather on mobile